createdAt,value
2022-09-09T00:02:03.498Z,99015.75
2022-09-09T00:04:34.793Z,99002.50
2022-09-09T00:07:07.445Z,99006.94
2022-09-09T00:09:47.278Z,99012.28
2022-09-09T00:12:50.079Z,99007.41
2022-09-09T00:15:35.787Z,98991.53
2022-09-09T00:18:21.285Z,98989.31
2022-09-09T00:21:07.173Z,98991.34
2022-09-09T00:23:40.295Z,98998.47
2022-09-09T00:26:35.712Z,98996.88
2022-09-09T00:29:34.132Z,98994.56
2022-09-09T00:32:14.728Z,98994.69
2022-09-09T00:34:59.986Z,98991.28
2022-09-09T00:37:29.635Z,98987.91
2022-09-09T00:40:03.797Z,98987.69
2022-09-09T00:42:44.469Z,98982.41
2022-09-09T00:45:29.193Z,98978.94
2022-09-09T00:47:57.257Z,98980.53
2022-09-09T00:50:44.901Z,98971.75
2022-09-09T00:53:28.742Z,98983.59
2022-09-09T00:56:22.590Z,98986.06
2022-09-09T00:59:28.497Z,98979.06
2022-09-09T01:01:56.739Z,98984.88
2022-09-09T01:04:37.337Z,98983.84
2022-09-09T01:07:18.807Z,98979.31
2022-09-09T01:09:59.512Z,98980.84
2022-09-09T01:12:39.748Z,98979.88
2022-09-09T01:15:22.658Z,98983.28
2022-09-09T01:18:02.382Z,98989.13
2022-09-09T01:20:58.538Z,98985.59
2022-09-09T01:23:47.370Z,98983.06
2022-09-09T01:26:28.033Z,98986.41
2022-09-09T01:28:55.942Z,98983.84
2022-09-09T01:32:03.213Z,98987.16
2022-09-09T01:34:39.803Z,98987.31
2022-09-09T01:37:12.168Z,98985.53
2022-09-09T01:39:43.607Z,98988.84
2022-09-09T01:42:15.866Z,98991.28
2022-09-09T01:44:42.899Z,98986.09
2022-09-09T01:47:10.313Z,98983.53
2022-09-09T01:49:37.067Z,98987.56
2022-09-09T01:52:04.595Z,98985.84
2022-09-09T01:54:34.367Z,98989.09
2022-09-09T01:57:34.230Z,98982.25
2022-09-09T02:00:10.472Z,98989.09
2022-09-09T02:02:54.920Z,98982.25
2022-09-09T02:05:40.513Z,98980.44
2022-09-09T02:08:21.192Z,98979.59
2022-09-09T02:11:02.795Z,98982.88
2022-09-09T02:13:35.202Z,98975.13
2022-09-09T02:16:33.447Z,98972.47
2022-09-09T02:19:13.708Z,98974.06
2022-09-09T02:21:44.987Z,98981.63
2022-09-09T02:24:16.772Z,98981.50
2022-09-09T02:26:47.013Z,98971.19
2022-09-09T02:29:24.407Z,98984.81
2022-09-09T02:31:54.745Z,98971.25
2022-09-09T02:34:25.095Z,98969.59
2022-09-09T02:36:56.037Z,98973.81
2022-09-09T02:39:22.815Z,98964.53
2022-09-09T02:41:49.741Z,98969.66
2022-09-09T02:44:19.221Z,98969.59
2022-09-09T02:47:13.858Z,98970.31
2022-09-09T02:49:57.775Z,98969.59
2022-09-09T02:52:47.038Z,98964.38
2022-09-09T02:55:28.278Z,98963.56
2022-09-09T02:57:58.888Z,98966.78
2022-09-09T03:00:28.145Z,98960.78
2022-09-09T03:02:57.310Z,98970.88
2022-09-09T03:05:24.592Z,98971.69
2022-09-09T03:07:51.955Z,98971.63
2022-09-09T03:10:18.840Z,98968.16
2022-09-09T03:12:45.689Z,98967.19
2022-09-09T03:15:12.565Z,98973.91
2022-09-09T03:17:39.354Z,98969.69
2022-09-09T03:20:07.120Z,98975.59
2022-09-09T03:22:34.235Z,98978.22
2022-09-09T03:25:01.375Z,98970.38
2022-09-09T03:27:28.270Z,98967.81
2022-09-09T03:29:55.105Z,98966.22
2022-09-09T03:32:23.427Z,98958.72
2022-09-09T03:34:50.665Z,98958.78
2022-09-09T03:37:18.729Z,98959.75
2022-09-09T03:39:45.894Z,98966.63
2022-09-09T03:42:19.860Z,98962.41
2022-09-09T03:44:50.860Z,98973.59
2022-09-09T03:47:25.356Z,98978.78
2022-09-09T03:49:52.073Z,98975.47
2022-09-09T03:52:23.403Z,98971.25
2022-09-09T03:54:50.506Z,98979.75
2022-09-09T03:57:17.885Z,98973.81
2022-09-09T03:59:45.112Z,98972.16
2022-09-09T04:02:12.040Z,98962.94
2022-09-09T04:04:38.803Z,98967.19
2022-09-09T04:07:07.884Z,98968.16
2022-09-09T04:09:34.928Z,98962.28
2022-09-09T04:12:02.144Z,98962.28
2022-09-09T04:14:29.660Z,98956.38
2022-09-09T04:16:58.331Z,98966.56
2022-09-09T04:19:25.632Z,98952.84
2022-09-09T04:21:52.535Z,98966.53
2022-09-09T04:24:19.941Z,98954.53
2022-09-09T04:26:47.678Z,98964.63
2022-09-09T04:29:14.582Z,98962.94
2022-09-09T04:31:43.059Z,98954.25
2022-09-09T04:34:10.549Z,98961.88
2022-09-09T04:36:37.386Z,98963.50
2022-09-09T04:39:04.403Z,98961.75
2022-09-09T04:41:32.445Z,98961.75
2022-09-09T04:44:01.764Z,98971.09
2022-09-09T04:46:28.539Z,98961.81
2022-09-09T04:48:55.442Z,98965.97
2022-09-09T04:51:23.179Z,98970.31
2022-09-09T04:53:51.769Z,98967.72
2022-09-09T04:56:19.717Z,98969.44
2022-09-09T04:58:46.701Z,98972.78
2022-09-09T05:01:21.995Z,98971.88
2022-09-09T05:03:48.759Z,98961.75
2022-09-09T05:06:19.888Z,98972.00
2022-09-09T05:08:47.345Z,98978.09
2022-09-09T05:11:26.792Z,98965.34
2022-09-09T05:13:55.310Z,98968.69
2022-09-09T05:16:23.879Z,98973.03
2022-09-09T05:18:54.513Z,98973.81
2022-09-09T05:21:25.106Z,98974.72
2022-09-09T05:23:54.398Z,98970.47
2022-09-09T05:26:23.110Z,98980.53
2022-09-09T05:28:50.571Z,98971.88
2022-09-09T05:31:19.449Z,98970.91
2022-09-09T05:33:49.068Z,98971.44
2022-09-09T05:36:19.498Z,98973.69
2022-09-09T05:38:46.493Z,98970.94
2022-09-09T05:41:16.727Z,98971.63
2022-09-09T05:43:45.410Z,98966.34
2022-09-09T05:46:18.309Z,98978.22
2022-09-09T05:48:48.377Z,98971.06
2022-09-09T05:51:19.637Z,98980.25
2022-09-09T05:53:47.527Z,98976.63
2022-09-09T05:56:22.768Z,98972.03
2022-09-09T05:58:50.852Z,98976.03
2022-09-09T06:01:21.073Z,98966.41
2022-09-09T06:03:50.422Z,98970.31
2022-09-09T06:06:23.850Z,98979.34
2022-09-09T06:08:58.398Z,98968.88
2022-09-09T06:11:28.648Z,98972.00
2022-09-09T06:13:55.604Z,98963.91
2022-09-09T06:16:27.454Z,98968.59
2022-09-09T06:18:57.266Z,98957.88
2022-09-09T06:21:31.070Z,98961.72
2022-09-09T06:24:01.100Z,98962.09
2022-09-09T06:26:37.746Z,98966.78
2022-09-09T06:29:05.749Z,98964.81
2022-09-09T06:31:35.858Z,98974.53
2022-09-09T06:34:05.585Z,98962.09
2022-09-09T06:36:39.174Z,98952.06
2022-09-09T06:39:10.977Z,98956.44
2022-09-09T06:41:41.959Z,98956.38
2022-09-09T06:44:08.737Z,98948.91
2022-09-09T06:46:36.598Z,98965.47
2022-09-09T06:49:04.505Z,98953.78
2022-09-09T06:51:35.683Z,98959.50
2022-09-09T06:54:04.964Z,98955.06
2022-09-09T06:56:41.434Z,98955.56
2022-09-09T06:59:10.151Z,98951.47
2022-09-09T07:01:42.763Z,98954.69
2022-09-09T07:04:11.802Z,98958.00
2022-09-09T07:06:44.109Z,98948.97
2022-09-09T07:09:14.076Z,98951.84
2022-09-09T07:11:48.681Z,98952.50
2022-09-09T07:14:17.115Z,98947.38
2022-09-09T07:16:47.318Z,98965.66
2022-09-09T07:19:15.473Z,98964.16
2022-09-09T07:21:43.853Z,98964.03
2022-09-09T07:24:13.635Z,98967.25
2022-09-09T07:26:41.428Z,98961.00
2022-09-09T07:29:09.630Z,98961.59
2022-09-09T07:31:40.719Z,98964.91
2022-09-09T07:34:08.009Z,98972.00
2022-09-09T07:36:38.981Z,98966.09
2022-09-09T07:39:10.045Z,98978.50
2022-09-09T07:41:59.033Z,98964.69
2022-09-09T07:44:27.756Z,98966.81
2022-09-09T07:46:57.128Z,98960.78
2022-09-09T07:49:29.679Z,98958.78
2022-09-09T07:51:59.669Z,98955.31
2022-09-09T07:54:27.323Z,98959.94
2022-09-09T07:56:54.133Z,98948.72
2022-09-09T07:59:21.182Z,98964.91
2022-09-09T08:01:55.263Z,98964.88
2022-09-09T08:04:25.021Z,98968.97
2022-09-09T08:06:59.239Z,98961.09
2022-09-09T08:09:30.564Z,98957.88
2022-09-09T08:11:59.107Z,98956.56
2022-09-09T08:14:26.514Z,98964.25
2022-09-09T08:16:55.478Z,98974.91
2022-09-09T08:19:25.737Z,98962.88
2022-09-09T08:21:52.585Z,98965.94
2022-09-09T08:24:20.593Z,98968.03
2022-09-09T08:26:50.249Z,98971.38
2022-09-09T08:29:18.025Z,98979.28
2022-09-09T08:31:58.306Z,98977.16
2022-09-09T08:34:28.137Z,98976.25
2022-09-09T08:36:55.530Z,98990.94
2022-09-09T08:39:23.914Z,98992.69
2022-09-09T08:42:22.262Z,98985.72
2022-09-09T08:45:21.093Z,99000.44
2022-09-09T08:48:03.658Z,98995.59
2022-09-09T08:50:42.201Z,98994.25
2022-09-09T08:53:09.174Z,99004.84
2022-09-09T08:55:46.199Z,99002.53
2022-09-09T08:58:30.575Z,98988.69
2022-09-09T09:01:34.673Z,99002.16
2022-09-09T09:04:31.422Z,98994.88
2022-09-09T09:07:17.411Z,98998.19
2022-09-09T09:10:42.909Z,98997.88
2022-09-09T09:13:45.098Z,99000.75
2022-09-09T09:16:51.591Z,99001.19
2022-09-09T09:19:19.116Z,98989.41
2022-09-09T09:22:04.108Z,99000.72
2022-09-09T09:24:59.079Z,99005.84
2022-09-09T09:28:08.862Z,98992.50
2022-09-09T09:31:13.338Z,98990.06
2022-09-09T09:33:52.431Z,99000.41
2022-09-09T09:36:23.281Z,98993.13
2022-09-09T09:41:50.362Z,99007.88
2022-09-09T09:44:32.398Z,98999.78
2022-09-09T09:47:18.204Z,98997.03
2022-09-09T09:49:56.522Z,98992.47
2022-09-09T09:52:27.894Z,99009.13
2022-09-09T09:54:56.650Z,99015.44
2022-09-09T09:57:32.584Z,99003.97
2022-09-09T10:00:24.212Z,99007.47
2022-09-09T10:02:53.677Z,99007.22
2022-09-09T10:05:29.082Z,99006.41
2022-09-09T10:08:10.386Z,99002.31
2022-09-09T10:10:58.409Z,98998.22
2022-09-09T10:14:04.697Z,98994.66
2022-09-09T10:17:14.987Z,99002.91
2022-09-09T10:20:01.778Z,99002.66
2022-09-09T10:22:35.131Z,99006.59
2022-09-09T10:25:26.386Z,99009.66
2022-09-09T10:28:24.147Z,99006.72
2022-09-09T10:31:34.311Z,99002.78
2022-09-09T10:34:55.343Z,99000.00
2022-09-09T10:37:31.310Z,99003.34
2022-09-09T10:40:27.714Z,98990.03
2022-09-09T10:43:19.582Z,98999.06
2022-09-09T10:46:10.863Z,98994.78
2022-09-09T10:49:24.551Z,99000.00
2022-09-09T10:52:25.816Z,98984.03
2022-09-09T10:55:16.611Z,98991.88
2022-09-09T10:57:54.714Z,99001.38
2022-09-09T11:00:37.092Z,99001.09
2022-09-09T11:03:05.345Z,98994.94
2022-09-09T11:05:57.956Z,98998.47
2022-09-09T11:08:36.504Z,98999.25
2022-09-09T11:11:30.282Z,99001.34
2022-09-09T11:14:11.040Z,99019.50
2022-09-09T11:16:51.678Z,99007.31
2022-09-09T11:19:38.644Z,99007.34
2022-09-09T11:22:35.485Z,98995.72
2022-09-09T11:25:18.794Z,98999.72
2022-09-09T11:28:26.220Z,98992.28
2022-09-09T11:31:43.195Z,98993.81
2022-09-09T11:34:28.715Z,98992.28
2022-09-09T11:37:22.628Z,99005.34
2022-09-09T11:40:11.239Z,99008.78
2022-09-09T11:42:38.403Z,99012.72
2022-09-09T11:45:32.528Z,99014.41
2022-09-09T11:48:01.735Z,99015.81
2022-09-09T11:50:42.190Z,99039.13
2022-09-09T11:53:14.882Z,99039.31
2022-09-09T11:55:47.083Z,99033.28
2022-09-09T11:58:13.735Z,99038.66
2022-09-09T12:00:47.128Z,99035.63
2022-09-09T12:04:04.051Z,99032.44
2022-09-09T12:06:34.372Z,99029.16
2022-09-09T12:09:25.580Z,99019.25
2022-09-09T12:12:12.639Z,99021.84
2022-09-09T12:14:42.528Z,99014.75
2022-09-09T12:17:28.265Z,99032.09
2022-09-09T12:20:12.902Z,99016.63
2022-09-09T12:23:08.544Z,99023.75
2022-09-09T12:26:04.984Z,99021.63
2022-09-09T12:28:57.195Z,99014.63
2022-09-09T12:32:08.477Z,99009.09
2022-09-09T12:35:02.795Z,99015.72
2022-09-09T12:37:42.268Z,99020.63
2022-09-09T12:40:36.186Z,99010.13
2022-09-09T12:43:18.697Z,99006.34
2022-09-09T12:45:46.326Z,99006.94
2022-09-09T12:48:16.872Z,98998.09
2022-09-09T12:50:56.465Z,98996.78
2022-09-09T12:53:36.806Z,98994.19
2022-09-09T12:56:08.970Z,98996.56
2022-09-09T12:58:39.373Z,98992.78
2022-09-09T13:01:07.726Z,98982.63
2022-09-09T13:03:48.190Z,98987.84
2022-09-09T13:06:34.158Z,98991.72
2022-09-09T13:09:03.112Z,98982.97
2022-09-09T13:11:48.064Z,98983.56
2022-09-09T13:14:30.452Z,98974.69
2022-09-09T13:17:02.803Z,98975.38
2022-09-09T13:19:37.204Z,98965.84
2022-09-09T13:22:28.467Z,98965.72
2022-09-09T13:25:20.249Z,98962.97
2022-09-09T13:28:03.513Z,98957.44
2022-09-09T13:30:38.999Z,98955.50
2022-09-09T13:33:18.272Z,98955.38
2022-09-09T13:36:05.704Z,98953.84
2022-09-09T13:38:59.380Z,98937.69
2022-09-09T13:41:42.999Z,98944.31
2022-09-09T13:44:26.882Z,98953.56
2022-09-09T13:47:24.226Z,98956.91
2022-09-09T13:49:51.110Z,98957.13
2022-09-09T13:52:20.363Z,98966.34
2022-09-09T13:54:52.303Z,98980.13
2022-09-09T13:57:26.081Z,98971.75
2022-09-09T14:00:11.386Z,98980.03
2022-09-09T14:02:39.808Z,98972.22
2022-09-09T14:05:07.243Z,98971.81
2022-09-09T14:07:34.260Z,98970.25
2022-09-09T14:10:01.105Z,98970.19
2022-09-09T14:12:28.044Z,98975.84
2022-09-09T14:14:54.756Z,98971.94
2022-09-09T14:17:23.220Z,98969.06
2022-09-09T14:19:50.021Z,98967.72
2022-09-09T14:22:16.803Z,98968.78
2022-09-09T14:24:43.872Z,98979.97
2022-09-09T14:27:10.675Z,98976.69
2022-09-09T14:29:37.406Z,98973.34
2022-09-09T14:32:04.476Z,98977.44
2022-09-09T14:34:33.327Z,98974.91
2022-09-09T14:37:02.445Z,98985.00
2022-09-09T14:39:29.251Z,98984.94
2022-09-09T14:41:56.430Z,98978.00
2022-09-09T14:44:23.344Z,98981.13
2022-09-09T14:46:54.153Z,98975.41
2022-09-09T14:49:21.426Z,98974.44
2022-09-09T14:51:48.318Z,98977.56
2022-09-09T14:54:15.786Z,98985.13
2022-09-09T14:56:42.589Z,98982.34
2022-09-09T14:59:09.303Z,98975.31
2022-09-09T15:01:36.182Z,98978.50
2022-09-09T15:04:06.448Z,98971.84
2022-09-09T15:06:38.241Z,98984.25
2022-09-09T15:09:05.750Z,98988.09
2022-09-09T15:11:38.839Z,98976.84
2022-09-09T15:14:08.208Z,98975.38
2022-09-09T15:16:36.109Z,98986.88
2022-09-09T15:19:03.724Z,98976.91
2022-09-09T15:21:34.679Z,98985.59
2022-09-09T15:24:01.922Z,98977.31
2022-09-09T15:26:29.344Z,98975.88
2022-09-09T15:28:56.206Z,98974.41
2022-09-09T15:31:26.599Z,98983.84
2022-09-09T15:34:02.535Z,98983.94
2022-09-09T15:36:44.164Z,98990.97
2022-09-09T15:39:16.832Z,98987.72
2022-09-09T15:41:45.941Z,98992.25
2022-09-09T15:44:13.526Z,98991.41
2022-09-09T15:46:45.344Z,98992.03
2022-09-09T15:49:13.746Z,98986.31
2022-09-09T15:51:44.941Z,98986.44
2022-09-09T15:54:19.015Z,98978.97
2022-09-09T15:56:51.098Z,98983.50
2022-09-09T15:59:30.215Z,98987.03
2022-09-09T16:01:58.202Z,98992.22
2022-09-09T16:04:27.858Z,98998.09
2022-09-09T16:07:04.573Z,98988.59
2022-09-09T16:09:33.093Z,98992.75
2022-09-09T16:12:01.935Z,98995.84
2022-09-09T16:14:34.858Z,98994.78
2022-09-09T16:17:01.975Z,98986.22
2022-09-09T16:19:28.773Z,98991.50
2022-09-09T16:21:55.615Z,98989.13
2022-09-09T16:24:22.615Z,98987.75
2022-09-09T16:26:55.190Z,98982.91
2022-09-09T16:29:24.792Z,98989.38
2022-09-09T16:31:52.874Z,98975.34
2022-09-09T16:34:21.066Z,98984.34
2022-09-09T16:36:49.549Z,98990.94
2022-09-09T16:39:20.849Z,98991.63
2022-09-09T16:41:49.696Z,98994.78
2022-09-09T16:44:19.668Z,98998.69
2022-09-09T16:46:49.661Z,99002.69
2022-09-09T16:49:16.943Z,99003.97
2022-09-09T16:51:49.311Z,99014.66
2022-09-09T16:54:18.036Z,99012.72
2022-09-09T16:56:48.326Z,99010.72
2022-09-09T16:59:21.612Z,99021.59
2022-09-09T17:01:52.139Z,99024.72
2022-09-09T17:04:24.862Z,99019.31
2022-09-09T17:06:54.535Z,99018.19
2022-09-09T17:09:23.803Z,99027.13
2022-09-09T17:11:53.364Z,99028.38
2022-09-09T17:14:22.041Z,99030.38
2022-09-09T17:16:49.640Z,99036.84
2022-09-09T17:19:16.833Z,99036.44
2022-09-09T17:22:05.852Z,99035.47
2022-09-09T17:24:30.585Z,99041.44
2022-09-09T17:26:58.379Z,99043.13
2022-09-09T17:29:25.942Z,99041.94
2022-09-09T17:31:52.844Z,99050.25
2022-09-09T17:34:19.615Z,99056.00
2022-09-09T17:36:46.411Z,99065.16
2022-09-09T17:39:13.696Z,99068.22
2022-09-09T17:41:41.343Z,99068.72
2022-09-09T17:44:10.663Z,99077.66
2022-09-09T17:46:42.184Z,99077.25
2022-09-09T17:49:13.536Z,99078.59
2022-09-09T17:51:42.919Z,99082.44
2022-09-09T17:54:17.586Z,99086.28
2022-09-09T17:56:45.359Z,99088.34
2022-09-09T17:59:14.548Z,99083.44
2022-09-09T18:01:44.968Z,99079.69
2022-09-09T18:04:14.178Z,99085.03
2022-09-09T18:06:46.947Z,99080.97
2022-09-09T18:09:23.365Z,99081.28
2022-09-09T18:11:54.542Z,99074.78
2022-09-09T18:14:30.281Z,99075.06
2022-09-09T18:16:59.459Z,99078.78
2022-09-09T18:19:30.669Z,99087.41
2022-09-09T18:22:00.313Z,99080.81
2022-09-09T18:24:29.900Z,99081.84
2022-09-09T18:26:56.785Z,99079.44
2022-09-09T18:29:25.520Z,99080.41
2022-09-09T18:31:56.188Z,99078.00
2022-09-09T18:34:25.881Z,99077.38
2022-09-09T18:36:55.170Z,99074.19
2022-09-09T18:39:27.105Z,99084.63
2022-09-09T18:41:59.408Z,99089.00
2022-09-09T18:44:30.935Z,99094.22
2022-09-09T18:46:58.023Z,99096.19
2022-09-09T18:49:26.432Z,99096.25
2022-09-09T18:51:53.753Z,99099.66
2022-09-09T18:54:29.520Z,99108.25
2022-09-09T18:56:56.477Z,99111.75
2022-09-09T18:59:24.511Z,99107.50
2022-09-09T19:01:53.158Z,99107.63
2022-09-09T19:04:23.118Z,99112.84
2022-09-09T19:06:57.845Z,99104.44
2022-09-09T19:09:31.027Z,99101.06
2022-09-09T19:11:59.914Z,99112.22
2022-09-09T19:14:27.082Z,99121.69
2022-09-09T19:16:53.965Z,99119.13
2022-09-09T19:19:29.327Z,99125.06
2022-09-09T19:21:57.379Z,99125.06
2022-09-09T19:24:28.563Z,99129.41
2022-09-09T19:27:01.607Z,99131.00
2022-09-09T19:29:32.485Z,99139.75
2022-09-09T19:34:48.696Z,99147.56
2022-09-09T19:37:18.583Z,99151.97
2022-09-09T19:39:51.321Z,99155.34
2022-09-09T19:42:18.273Z,99155.44
2022-09-09T19:44:45.410Z,99155.50
2022-09-09T19:47:14.369Z,99157.22
2022-09-09T19:49:42.957Z,99168.34
2022-09-09T19:52:13.211Z,99166.69
2022-09-09T19:54:39.965Z,99167.56
2022-09-09T19:57:06.745Z,99174.47
2022-09-09T19:59:33.816Z,99160.84
2022-09-09T20:02:01.178Z,99167.72
2022-09-09T20:04:28.383Z,99172.88
2022-09-09T20:06:55.201Z,99171.34
2022-09-09T20:09:22.297Z,99174.09
2022-09-09T20:11:49.982Z,99178.50
2022-09-09T20:14:18.317Z,99180.31
2022-09-09T20:16:46.657Z,99183.94
2022-09-09T20:19:18.689Z,99180.66
2022-09-09T20:21:52.023Z,99185.94
2022-09-09T20:24:22.843Z,99181.78
2022-09-09T20:26:49.653Z,99180.25
2022-09-09T20:29:20.223Z,99194.72
2022-09-09T20:31:48.307Z,99182.03
2022-09-09T20:34:19.055Z,99183.56
2022-09-09T20:36:47.313Z,99185.31
2022-09-09T20:39:22.539Z,99187.88
2022-09-09T20:41:50.675Z,99183.63
2022-09-09T20:44:24.206Z,99181.00
2022-09-09T20:46:57.105Z,99178.34
2022-09-09T20:49:24.392Z,99177.53
2022-09-09T20:51:53.386Z,99176.56
2022-09-09T20:54:27.477Z,99177.25
2022-09-09T20:56:58.089Z,99168.78
2022-09-09T20:59:28.070Z,99171.44
2022-09-09T21:01:56.647Z,99178.16
2022-09-09T21:04:25.122Z,99178.16
2022-09-09T21:06:52.282Z,99164.63
2022-09-09T21:09:20.377Z,99165.50
2022-09-09T21:11:47.192Z,99167.59
2022-09-09T21:14:14.519Z,99167.78
2022-09-09T21:16:41.378Z,99172.16
2022-09-09T21:19:08.404Z,99168.88
2022-09-09T21:21:36.251Z,99174.09
2022-09-09T21:24:03.627Z,99174.97
2022-09-09T21:26:30.346Z,99173.31
2022-09-09T21:28:57.132Z,99176.81
2022-09-09T21:31:27.934Z,99182.63
2022-09-09T21:33:58.321Z,99176.59
2022-09-09T21:36:28.129Z,99181.78
2022-09-09T21:38:55.193Z,99179.94
2022-09-09T21:41:23.523Z,99186.53
2022-09-09T21:43:54.145Z,99183.88
2022-09-09T21:46:23.185Z,99178.63
2022-09-09T21:48:50.601Z,99177.78
2022-09-09T21:51:18.330Z,99181.13
2022-09-09T21:53:46.029Z,99185.38
2022-09-09T21:56:16.613Z,99189.66
2022-09-09T21:58:43.613Z,99188.84
2022-09-09T22:01:14.601Z,99184.59
2022-09-09T22:03:42.668Z,99185.41
2022-09-09T22:06:15.303Z,99181.25
2022-09-09T22:08:42.704Z,99191.47
2022-09-09T22:11:19.954Z,99176.13
2022-09-09T22:13:46.688Z,99170.16
2022-09-09T22:16:20.322Z,99172.66
2022-09-09T22:18:56.945Z,99173.63
2022-09-09T22:21:26.142Z,99168.50
2022-09-09T22:23:59.491Z,99172.81
2022-09-09T22:26:30.220Z,99175.47
2022-09-09T22:28:57.891Z,99179.78
2022-09-09T22:31:26.122Z,99172.16
2022-09-09T22:33:53.991Z,99170.50
2022-09-09T22:36:21.349Z,99169.66
2022-09-09T22:38:50.280Z,99174.88
2022-09-09T22:41:18.803Z,99175.84
2022-09-09T22:43:47.064Z,99177.56
2022-09-09T22:46:14.701Z,99179.38
2022-09-09T22:48:42.028Z,99182.03
2022-09-09T22:51:12.965Z,99178.59
2022-09-09T22:53:42.150Z,99174.50
2022-09-09T22:56:17.012Z,99170.25
2022-09-09T22:58:44.418Z,99167.75
2022-09-09T23:01:19.456Z,99167.03
2022-09-09T23:03:47.938Z,99176.56
2022-09-09T23:06:22.330Z,99171.47
2022-09-09T23:08:55.815Z,99177.59
2022-09-09T23:11:35.682Z,99183.63
2022-09-09T23:14:06.492Z,99182.00
2022-09-09T23:16:40.317Z,99177.84
2022-09-09T23:19:15.788Z,99177.91
2022-09-09T23:21:44.981Z,99176.31
2022-09-09T23:24:15.380Z,99182.34
2022-09-09T23:26:45.505Z,99179.75
2022-09-09T23:29:14.116Z,99178.97
2022-09-09T23:31:44.923Z,99180.78
2022-09-09T23:34:13.036Z,99179.13
2022-09-09T23:36:41.386Z,99191.81
2022-09-09T23:39:09.546Z,99182.41
2022-09-09T23:41:37.982Z,99182.25
2022-09-09T23:44:05.190Z,99181.28
2022-09-09T23:46:34.930Z,99180.41
2022-09-09T23:49:02.831Z,99186.28
2022-09-09T23:51:34.671Z,99175.13
2022-09-09T23:54:04.888Z,99187.84
2022-09-09T23:56:37.671Z,99179.22
2022-09-09T23:59:06.909Z,99191.88
